Latest Weather Observations for Pallamana

IDS60801

Issued at 3:32 pm CST Sunday 26 April 2015 (issued every 30 minutes, with the page automatically refreshed every 10 minutes)

About weather observations | Map of weather stations | Latest weather observations for SA | Other Formats
Station Details ID: 024584 Name: PALLAMANA AERODROME Lat: -35.06 Lon: 139.23 Height: 45.0 m
Data from the previous 72 hours. | See also: Recent months at Pallamana
Date/Time
CST
Temp
°C
App
Temp
°C
Dew
Point
Rel
Hum
%
Delta-T
°C
Wind Press
QNH
hPa
Press
MSL
hPa
Rain
since 9 am
mm
Dir
 
Spd
km/h
Gust
km/h
Spd
kts
Gust
kts
26/03:30pm 14.8 10.4 8.9 68 3.0 S 22 32 12 17 1024.5 1024.5 0.0
26/03:00pm 15.4 10.3 5.8 52 4.6 SSW 22 30 12 16 1024.3 1024.3 0.0
26/02:30pm 15.4 10.2 7.3 58 4.0 SSW 24 33 13 18 1024.3 1024.3 0.0
26/02:00pm 15.2 9.8 7.8 61 3.7 SSW 26 32 14 17 1024.3 1024.3 0.0
26/01:30pm 15.3 9.7 7.2 58 4.0 S 26 37 14 20 1024.2 1024.2 0.0
26/01:00pm 15.8 10.7 7.8 59 4.0 SSW 24 33 13 18 1024.2 1024.2 0.0
26/12:30pm 14.8 10.2 9.5 70 2.7 SW 24 30 13 16 1024.4 1024.4 0.0
26/12:00pm 15.0 9.8 8.7 66 3.2 SSW 26 35 14 19 1024.5 1024.5 0.0
26/11:30am 15.0 11.1 9.6 70 2.8 SW 20 28 11 15 1024.8 1024.8 0.0
26/11:00am 15.2 10.1 9.1 67 3.1 SSW 26 35 14 19 1024.8 1024.8 0.0
26/10:30am 15.5 11.9 10.6 72 2.6 S 20 28 11 15 1024.8 1024.8 0.0
26/10:01am 13.3 10.0 10.8 85 1.3 SSW 19 24 10 13 1024.9 1024.9 0.0
26/10:00am 13.3 10.0 11.0 86 1.2 SSW 19 24 10 13 1025.0 1025.0 0.0
26/09:42am 13.1 8.4 10.6 85 1.3 SW 26 39 14 21 1024.9 1024.9 0.0
26/09:30am 14.0 10.5 10.8 81 1.7 SW 20 26 11 14 1024.8 1024.8 0.0
26/09:00am 13.3 10.4 11.0 86 1.2 SW 17 20 9 11 1024.7 1024.7 4.4
26/08:40am 12.2 9.5 10.5 89 0.9 SW 15 20 8 11 1024.6 1024.6 4.4
26/08:30am 11.9 8.5 10.5 91 0.7 SW 19 26 10 14 1024.5 1024.5 4.4
26/08:21am 12.1 8.8 10.9 92 0.6 SW 19 24 10 13 1024.6 1024.6 4.4
26/08:16am 12.3 9.0 11.0 92 0.7 SW 19 22 10 12 1024.4 1024.4 4.4
26/08:00am 12.1 8.9 11.1 94 0.5 SW 19 22 10 12 1024.3 1024.3 4.4
26/07:30am 11.7 9.5 10.9 95 0.4 SW 13 17 7 9 1023.8 1023.8 4.4
26/07:00am 10.4 8.3 9.6 95 0.4 SW 11 17 6 9 1023.3 1023.3 4.4
26/06:30am 10.9 8.1 9.9 93 0.5 WSW 15 19 8 10 1022.9 1022.9 4.4
26/06:02am 10.8 8.0 10.0 95 0.4 SW 15 20 8 11 1022.7 1022.7 4.4
26/06:00am 10.9 7.7 9.9 93 0.5 SW 17 20 9 11 1022.7 1022.7 4.4
26/05:43am 11.2 7.7 10.2 94 0.5 SW 19 26 10 14 1022.5 1022.4 4.4
26/05:38am 11.2 8.5 10.2 94 0.5 SW 15 19 8 10 1022.5 1022.4 4.4
26/05:30am 11.1 8.4 10.3 95 0.4 SSW 15 20 8 11 1022.4 1022.3 4.4
26/05:10am 11.0 8.3 10.2 95 0.4 SW 15 19 8 10 1022.4 1022.3 4.2
26/05:00am 10.8 7.9 9.8 93 0.5 WSW 15 17 8 9 1022.3 1022.2 4.0
26/04:49am 10.8 8.3 9.8 93 0.5 SW 13 17 7 9 1022.2 1022.1 4.0
26/04:30am 11.1 8.3 10.1 94 0.5 SW 15 20 8 11 1022.0 1021.9 4.0
26/04:20am 10.7 8.1 9.5 92 0.6 SW 13 15 7 8 1021.9 1021.8 4.0
26/04:00am 10.9 8.0 9.7 92 0.6 SW 15 19 8 10 1021.8 1021.7 4.0
26/03:30am 10.5 7.5 9.1 91 0.7 WSW 15 17 8 9 1021.6 1021.5 4.0
26/03:00am 10.9 8.2 9.1 89 0.9 SW 13 15 7 8 1021.7 1021.6 4.0
26/02:30am 11.2 7.7 8.6 84 1.3 WSW 17 22 9 12 1021.5 1021.4 4.0
26/02:00am 11.3 7.3 8.4 82 1.4 SW 19 26 10 14 1021.5 1021.4 4.0
26/01:30am 10.3 7.2 8.9 91 0.7 WSW 15 17 8 9 1021.2 1021.1 4.0
26/01:00am 11.5 9.4 9.9 90 0.8 SSW 11 11 6 6 1021.1 1021.0 4.0
26/12:30am 11.9 10.3 10.3 90 0.8 S 9 13 5 7 1021.2 1021.1 4.0
26/12:00am 11.7 9.4 10.3 91 0.7 SW 13 17 7 9 1020.8 1020.7 4.0
 
Date/Time
CST
Temp
°C
App
Temp
°C
Dew
Point
Rel
Hum
%
Delta-T
°C
Wind Press
QNH
hPa
Press
MSL
hPa
Rain
since 9 am
mm
Dir
 
Spd
km/h
Gust
km/h
Spd
kts
Gust
kts
25/11:30pm 11.5 8.6 9.7 89 0.9 SW 15 17 8 9 1020.9 1020.8 4.0
25/11:00pm 12.1 7.9 9.7 85 1.2 SSW 22 32 12 17 1020.8 1020.7 4.0
25/10:30pm 11.7 9.0 10.5 92 0.6 SW 15 19 8 10 1020.6 1020.5 4.0
25/10:00pm 11.4 8.3 10.2 92 0.6 SW 17 19 9 10 1020.6 1020.5 4.0
25/09:30pm 11.8 8.8 10.6 92 0.6 SW 17 19 9 10 1020.4 1020.3 3.8
25/09:00pm 12.2 8.8 11.1 93 0.6 SSW 20 28 11 15 1020.3 1020.2 3.8
25/08:30pm 12.4 7.9 11.3 93 0.6 SSW 26 37 14 20 1020.0 1019.9 3.6
25/08:15pm 12.3 7.3 10.8 90 0.8 SSW 28 41 15 22 1019.7 1019.6 3.2
25/08:05pm 12.4 7.1 11.1 92 0.7 SSW 30 44 16 24 1019.5 1019.4 3.2
25/08:03pm 12.6 7.6 11.1 91 0.8 SW 28 44 15 24 1019.4 1019.3 3.2
25/08:00pm 12.9 9.2 11.4 91 0.8 SW 22 32 12 17 1019.4 1019.3 3.2
25/07:58pm 12.8 9.5 11.5 92 0.7 SSW 20 32 11 17 1019.3 1019.2 3.2
25/07:51pm 12.7 9.5 11.2 91 0.8 SSW 19 28 10 15 1019.3 1019.2 3.0
25/07:43pm 12.7 9.0 11.4 92 0.7 SSW 22 32 12 17 1019.1 1019.0 3.0
25/07:39pm 12.7 8.2 11.4 92 0.7 SSW 26 37 14 20 1019.0 1018.9 3.0
25/07:30pm 13.1 9.8 11.6 91 0.8 SSW 20 30 11 16 1019.1 1019.0 2.8
25/07:25pm 13.0 8.9 11.5 91 0.8 SSW 24 32 13 17 1018.9 1018.8 2.8
25/07:07pm 13.0 7.7 11.3 89 0.9 SSW 30 37 16 20 1018.6 1018.5 2.6
25/07:00pm 13.3 8.0 11.4 88 1.0 SSW 30 41 16 22 1018.6 1018.5 2.6
25/06:30pm 13.4 8.8 11.1 86 1.2 SSW 26 32 14 17 1018.2 1018.1 2.6
25/06:00pm 13.4 8.1 11.1 86 1.2 SSW 30 39 16 21 1017.4 1017.3 2.6
25/05:36pm 13.4 7.7 11.7 89 0.9 SSW 33 52 18 28 1016.8 1016.7 2.6
25/05:30pm 13.4 7.7 11.7 89 0.9 SSW 33 41 18 22 1016.7 1016.6 2.6
25/05:27pm 13.4 7.9 11.9 91 0.8 SSW 32 41 17 22 1016.7 1016.6 2.6
25/05:12pm 13.5 8.0 11.8 89 0.9 SSW 32 46 17 25 1016.4 1016.3 2.6
25/05:00pm 13.8 9.0 11.7 87 1.1 SSW 28 39 15 21 1016.2 1016.1 2.6
25/04:59pm 13.8 9.1 11.9 88 1.0 SSW 28 39 15 21 1016.1 1016.0 2.6
25/04:40pm 13.8 8.8 12.3 91 0.8 SSW 30 44 16 24 1015.9 1015.8 2.4
25/04:30pm 13.8 7.5 12.3 91 0.8 SSW 37 48 20 26 1015.5 1015.4 2.0
25/04:23pm 13.9 7.6 12.2 89 0.9 SSW 37 54 20 29 1015.5 1015.4 2.0
25/04:02pm 13.7 7.7 12.2 91 0.8 SSW 35 54 19 29 1015.2 1015.1 2.0
25/04:00pm 13.6 7.6 12.1 91 0.8 SSW 35 52 19 28 1015.1 1015.0 2.0
25/03:38pm 14.5 9.4 13.1 91 0.8 SSW 32 43 17 23 1014.9 1014.8 1.2
25/03:30pm 14.5 9.6 12.5 88 1.1 SSW 30 39 16 21 1014.7 1014.6 0.8
25/03:00pm 15.0 10.2 12.8 87 1.2 SSW 30 41 16 22 1014.4 1014.3 0.6
25/02:30pm 16.7 10.8 12.3 75 2.4 SW 35 43 19 23 1013.7 1013.6 0.6
25/02:15pm 15.6 10.7 12.5 82 1.7 SW 30 41 16 22 1013.6 1013.5 0.6
25/02:02pm 14.8 9.2 12.0 83 1.5 SW 33 46 18 25 1013.6 1013.5 0.6
25/02:00pm 14.8 9.1 11.8 82 1.6 SW 33 46 18 25 1013.6 1013.5 0.6
25/01:30pm 15.0 9.5 11.9 82 1.7 WSW 32 43 17 23 1013.6 1013.5 0.6
25/01:16pm 13.9 8.4 11.9 88 1.1 WSW 32 41 17 22 1013.7 1013.6 0.6
25/01:00pm 13.3 6.3 11.4 88 1.0 WSW 39 46 21 25 1013.6 1013.5 0.6
25/12:50pm 13.6 6.8 10.5 81 1.6 SW 37 56 20 30 1013.9 1013.8 0.4
25/12:47pm 13.9 7.6 9.8 76 2.1 SW 33 56 18 30 1013.8 1013.7 0.4
25/12:30pm 14.7 8.4 9.7 72 2.6 SW 33 44 18 24 1013.8 1013.7 0.4
25/12:13pm 14.1 7.9 9.2 72 2.5 SW 32 50 17 27 1013.7 1013.6 0.4
25/12:12pm 14.3 8.1 9.4 72 2.5 SW 32 50 17 27 1013.7 1013.6 0.2
25/12:00pm 16.1 9.5 7.7 57 4.2 SW 32 41 17 22 1013.6 1013.5 0.0
25/11:30am 15.9 9.6 7.2 56 4.3 SW 30 43 16 23 1013.6 1013.5 0.0
25/11:00am 15.9 12.0 9.3 65 3.4 SW 20 28 11 15 1013.7 1013.6 0.0
25/10:30am 15.4 11.6 9.2 66 3.2 SSW 19 26 10 14 1013.5 1013.4 0.0
25/10:00am 14.3 10.2 8.6 68 2.9 SW 20 26 11 14 1013.4 1013.3 0.0
25/09:30am 13.3 9.3 9.2 76 2.1 SW 20 24 11 13 1013.1 1013.0 0.0
25/09:00am 12.3 9.3 9.1 81 1.6 SW 15 17 8 9 1012.8 1012.7 5.0
25/08:30am 11.3 8.6 8.9 85 1.2 SSW 13 17 7 9 1012.2 1012.1 5.0
25/08:00am 10.3 7.5 8.5 89 0.9 S 13 20 7 11 1011.8 1011.7 5.0
25/07:30am 9.5 6.5 7.8 89 0.8 SSW 13 17 7 9 1011.1 1011.1 5.0
25/07:00am 9.2 5.1 8.0 92 0.6 S 19 30 10 16 1010.2 1010.2 5.0
25/06:30am 8.7 4.3 7.4 91 0.6 S 20 28 11 15 1009.5 1009.5 5.0
25/06:16am 8.8 4.0 7.5 91 0.6 S 22 32 12 17 1009.2 1009.2 5.0
25/06:00am 8.9 3.9 7.9 93 0.5 S 24 32 13 17 1008.6 1008.6 5.0
25/05:30am 9.2 4.2 8.2 93 0.5 S 24 32 13 17 1007.6 1007.6 5.0
25/05:00am 9.3 5.7 8.3 93 0.5 S 17 22 9 12 1006.9 1006.9 5.0
25/04:32am 9.2 5.5 8.0 92 0.6 SSW 17 22 9 12 1006.3 1006.3 4.8
25/04:30am 9.1 5.4 8.1 93 0.5 SSW 17 22 9 12 1006.3 1006.3 4.8
25/04:00am 8.8 5.9 8.0 95 0.4 SSW 13 17 7 9 1005.5 1005.5 4.8
25/03:30am 8.7 6.1 7.9 95 0.4 S 11 15 6 8 1004.7 1004.7 4.8
25/03:00am 8.7 6.0 7.4 91 0.6 SSE 11 13 6 7 1004.1 1004.1 4.2
25/02:30am 8.6 6.8 7.3 91 0.6 NE 6 9 3 5 1003.6 1003.5 3.6
25/02:00am 8.6 6.2 7.1 90 0.7 ENE 9 15 5 8 1003.1 1003.0 2.8
25/01:30am 8.6 5.8 6.9 89 0.8 ENE 11 13 6 7 1003.1 1003.0 2.4
25/01:00am 8.4 5.2 6.7 89 0.8 NE 13 17 7 9 1003.1 1003.0 2.2
25/12:30am 8.9 5.3 6.8 87 1.0 NE 15 17 8 9 1003.1 1003.0 2.2
25/12:00am 9.2 5.7 7.1 87 1.0 NNE 15 17 8 9 1003.5 1003.4 2.2
 
Date/Time
CST
Temp
°C
App
Temp
°C
Dew
Point
Rel
Hum
%
Delta-T
°C
Wind Press
QNH
hPa
Press
MSL
hPa
Rain
since 9 am
mm
Dir
 
Spd
km/h
Gust
km/h
Spd
kts
Gust
kts
24/11:30pm 9.6 6.3 7.9 89 0.8 NNE 15 19 8 10 1003.6 1003.5 2.2
24/11:00pm 9.8 6.0 7.7 87 1.0 NNE 17 20 9 11 1003.7 1003.6 2.2
24/10:30pm 10.1 5.5 8.0 87 1.0 NNE 22 26 12 14 1004.2 1004.2 2.2
24/10:00pm 10.3 6.2 7.8 84 1.2 N 19 24 10 13 1004.8 1004.8 2.2
24/09:30pm 10.3 6.6 7.8 84 1.2 N 17 28 9 15 1005.3 1005.3 2.0
24/09:00pm 10.1 6.3 7.4 83 1.3 NNE 17 22 9 12 1005.6 1005.6 1.8
24/08:30pm 9.7 6.2 7.4 85 1.1 NNE 15 17 8 9 1006.2 1006.2 1.8
24/08:00pm 10.1 7.6 8.0 87 1.0 N 11 13 6 7 1006.6 1006.6 1.6
24/07:30pm 11.1 7.5 6.9 75 2.0 N 15 17 8 9 1007.1 1007.1 0.2
24/07:00pm 11.4 8.5 6.3 71 2.4 NNW 11 17 6 9 1007.0 1007.0 0.2
24/06:30pm 10.4 7.7 5.6 72 2.2 NNW 9 13 5 7 1007.2 1007.2 0.2
24/06:00pm 11.7 8.4 6.2 69 2.6 NW 13 20 7 11 1007.1 1007.1 0.2
24/05:30pm 12.6 8.1 6.1 64 3.1 NW 19 28 10 15 1007.1 1007.1 0.2
24/05:00pm 13.7 10.4 6.2 60 3.6 NW 13 20 7 11 1006.9 1006.9 0.2
24/04:30pm 15.0 10.0 4.5 49 4.9 W 20 32 11 17 1006.6 1006.6 0.2
24/04:00pm 14.8 7.6 3.1 45 5.3 W 30 35 16 19 1006.7 1006.7 0.2
24/03:30pm 15.1 9.0 4.7 50 4.9 W 26 37 14 20 1006.7 1006.7 0.2
24/03:04pm 16.3 9.7 4.1 44 5.7 W 28 46 15 25 1006.6 1006.6 0.2
24/03:00pm 16.4 10.6 4.3 44 5.7 W 24 41 13 22 1006.7 1006.7 0.2
24/02:30pm 16.7 9.8 4.7 45 5.7 W 30 43 16 23 1006.6 1006.6 0.2
24/02:00pm 14.9 7.9 6.0 55 4.3 W 32 44 17 24 1006.7 1006.7 0.2
24/01:45pm 16.1 9.9 6.0 51 4.9 WNW 28 48 15 26 1006.6 1006.6 0.2
24/01:30pm 16.8 10.5 5.7 48 5.4 WNW 28 43 15 23 1006.7 1006.7 0.2
24/01:00pm 14.7 9.6 6.0 56 4.2 WNW 22 43 12 23 1007.0 1007.0 0.2
24/12:30pm 14.1 10.0 8.8 70 2.7 W 20 30 11 16 1007.4 1007.4 0.2
24/12:00pm 13.1 9.1 10.4 84 1.4 W 22 30 12 16 1008.1 1008.1 0.2
24/11:52am 13.2 8.5 10.7 85 1.3 W 26 37 14 20 1008.0 1008.0 0.2
24/11:39am 13.2 6.9 10.9 86 1.2 WSW 35 43 19 23 1007.8 1007.8 0.2
24/11:30am 13.6 7.9 11.2 85 1.3 WSW 32 41 17 22 1007.7 1007.7 0.2
24/11:00am 13.8 6.6 10.6 81 1.7 W 39 48 21 26 1007.7 1007.7 0.0
24/10:52am 15.9 9.8 9.6 66 3.3 NW 32 48 17 26 1007.4 1007.4 0.0
24/10:50am 17.6 12.3 9.9 60 4.1 NW 28 48 15 26 1007.4 1007.4 0.0
24/10:30am 17.6 12.4 10.1 61 4.0 NW 28 44 15 24 1007.1 1007.1 0.0
24/10:00am 16.7 10.8 10.5 67 3.3 NNW 32 39 17 21 1007.5 1007.5 0.0
24/09:30am 16.3 12.9 11.3 72 2.7 NNW 20 30 11 16 1007.6 1007.6 0.0
24/09:00am 16.1 11.8 10.9 71 2.8 NNW 24 35 13 19 1007.9 1007.9 0.0
24/08:30am 16.2 12.1 11.6 74 2.5 N 24 30 13 16 1007.6 1007.6 0.0
24/08:00am 13.8 11.9 11.9 88 1.0 NNE 13 17 7 9 1007.8 1007.8 0.0
24/07:30am 12.4 10.7 11.1 92 0.7 N 11 15 6 8 1007.9 1007.9 0.0
24/07:00am 11.3 10.1 10.3 94 0.5 N 7 9 4 5 1008.1 1008.1 0.0
24/06:30am 11.3 11.1 10.3 94 0.5 NNW 2 6 1 3 1008.5 1008.5 0.0
24/06:00am 12.0 11.0 10.9 93 0.6 NW 7 11 4 6 1008.4 1008.4 0.0
24/05:30am 12.1 11.3 11.1 94 0.5 N 6 7 3 4 1008.2 1008.2 0.0
24/05:00am 12.1 10.7 11.0 93 0.6 NNE 9 11 5 6 1008.3 1008.3 0.0
24/04:30am 12.4 11.5 11.3 93 0.6 NNW 7 9 4 5 1008.7 1008.7 0.0
24/04:00am 11.9 10.8 10.7 92 0.6 NNE 7 11 4 6 1008.8 1008.8 0.0
24/03:30am 11.7 11.9 10.5 92 0.6 CALM 0 0 0 0 1009.1 1009.1 0.0
24/03:00am 12.4 11.6 11.1 92 0.7 NNW 6 7 3 4 1009.6 1009.6 0.0
24/02:30am 12.4 11.7 11.3 93 0.6 NNW 6 7 3 4 1009.9 1009.9 0.0
24/02:00am 12.2 11.2 11.1 93 0.6 NW 7 11 4 6 1010.2 1010.2 0.0
24/01:30am 11.4 10.4 10.2 92 0.6 WNW 6 9 3 5 1010.7 1010.7 0.0
24/01:00am 12.0 10.5 10.5 90 0.8 WNW 9 11 5 6 1010.9 1010.9 0.0
24/12:30am 11.9 10.3 10.3 90 0.8 NW 9 9 5 5 1011.4 1011.3 0.0
24/12:00am 12.8 11.1 11.1 89 0.9 WNW 11 11 6 6 1011.8 1011.7 0.0
 
Date/Time
CST
Temp
°C
App
Temp
°C
Dew
Point
Rel
Hum
%
Delta-T
°C
Wind Press
QNH
hPa
Press
MSL
hPa
Rain
since 9 am
mm
Dir
 
Spd
km/h
Gust
km/h
Spd
kts
Gust
kts
23/11:30pm 13.1 11.0 11.0 87 1.1 WNW 13 15 7 8 1012.2 1012.1 0.0
23/11:00pm 13.2 11.1 11.3 88 1.0 W 13 15 7 8 1012.5 1012.4 0.0
23/10:30pm 12.8 11.1 11.1 89 0.9 W 11 13 6 7 1012.8 1012.7 0.0
23/10:00pm 12.7 10.9 11.0 89 0.9 W 11 13 6 7 1013.1 1013.0 0.0
23/09:30pm 12.8 10.7 11.1 89 0.9 WSW 13 15 7 8 1013.6 1013.5 0.0
23/09:00pm 13.4 11.4 11.5 88 1.0 W 13 15 7 8 1013.8 1013.7 0.0
23/08:30pm 12.7 11.3 11.0 89 0.9 WSW 9 11 5 6 1013.8 1013.7 0.0
23/08:00pm 13.1 11.5 11.4 89 0.9 SW 11 13 6 7 1013.9 1013.8 0.0
23/07:30pm 13.4 12.1 11.3 87 1.1 SW 9 9 5 5 1014.3 1014.2 0.0
23/07:00pm 14.1 12.8 11.3 83 1.5 SW 9 9 5 5 1014.4 1014.3 0.0
23/06:30pm 14.0 12.7 11.4 84 1.4 SW 9 11 5 6 1014.3 1014.2 0.0
23/06:00pm 14.4 13.1 11.2 81 1.7 SSW 9 11 5 6 1014.1 1014.0 0.0
23/05:30pm 15.1 14.1 11.0 76 2.2 S 7 13 4 7 1014.2 1014.1 0.0
23/05:00pm 15.7 13.0 10.4 71 2.8 SSW 15 19 8 10 1014.1 1014.0 0.0
23/04:30pm 16.7 13.6 10.3 66 3.4 SSW 17 22 9 12 1014.0 1013.9 0.0
23/04:00pm 17.5 14.2 10.8 65 3.6 SW 19 24 10 13 1014.0 1013.9 0.0

Other Formats:

Comma delimited format used in spreadsheet applications
http://www.bom.gov.au/fwo/IDS60801/IDS60801.95818.axf

JavaScript Object Notation format (JSON) in row-major order
http://www.bom.gov.au/fwo/IDS60801/IDS60801.95818.json